Time;durP1;ratioP1;P1;durP2;ratioP2;P2;SDS_P1;SDS_P2;PMS_P1;PMS_P2;Temp;Humidity;BMP_temperature;BMP_pressure;BME280_temperature;BME280_humidity;BME280_pressure;Samples;Min_cycle;Max_cycle;Signal;HPM_P1;HPM_P2
2023/11/25 00:00:41;;;;;;;46.25;31.73;;;;;;;;;;5079647;28;20051;-73
2023/11/25 00:03:45;;;;;;;45.50;31.92;;;;;;;;;;5079921;28;20396;-73
2023/11/25 00:06:50;;;;;;;46.78;30.38;;;;;;;;;;5091761;28;20039;-74
2023/11/25 00:09:54;;;;;;;48.20;30.17;;;;;;;;;;5091747;28;20055;-74
2023/11/25 00:12:58;;;;;;;49.33;30.83;;;;;;;;;;5092342;28;20039;-73
2023/11/25 00:16:03;;;;;;;45.10;29.48;;;;;;;;;;5091833;28;20063;-74
2023/11/25 00:19:08;;;;;;;44.40;28.73;;;;;;;;;;5091737;28;20043;-73
2023/11/25 00:22:12;;;;;;;38.20;27.13;;;;;;;;;;5091327;28;20047;-73
2023/11/25 00:25:18;;;;;;;42.30;27.25;;;;;;;;;;5091382;28;20047;-73
2023/11/25 00:28:22;;;;;;;43.92;27.15;;;;;;;;;;5091727;28;20047;-73
2023/11/25 00:31:26;;;;;;;45.45;29.15;;;;;;;;;;5078895;28;20043;-73
2023/11/25 00:34:31;;;;;;;47.33;29.55;;;;;;;;;;5078772;28;20047;-73
2023/11/25 00:37:36;;;;;;;44.05;30.10;;;;;;;;;;5079111;28;20055;-73
2023/11/25 00:40:40;;;;;;;42.60;28.08;;;;;;;;;;5091467;28;20038;-73
2023/11/25 00:43:44;;;;;;;47.47;29.50;;;;;;;;;;5091585;28;20051;-73
2023/11/25 00:46:49;;;;;;;38.53;24.90;;;;;;;;;;5091389;28;20035;-73
2023/11/25 00:49:53;;;;;;;35.42;20.20;;;;;;;;;;5079431;28;20050;-73
2023/11/25 00:52:58;;;;;;;40.28;20.45;;;;;;;;;;5078827;28;20530;-73
2023/11/25 00:56:02;;;;;;;34.70;17.73;;;;;;;;;;5091138;28;20043;-73
2023/11/25 00:59:07;;;;;;;39.35;19.17;;;;;;;;;;5091619;28;20059;-73
2023/11/25 01:02:13;;;;;;;34.97;20.75;;;;;;;;;;5091094;28;20055;-73
2023/11/25 01:05:17;;;;;;;34.70;20.38;;;;;;;;;;5091409;28;20038;-73
2023/11/25 01:08:25;;;;;;;34.90;22.60;;;;;;;;;;5078485;28;20079;-73
2023/11/25 01:11:31;;;;;;;39.03;21.65;;;;;;;;;;5091143;28;20047;-73
2023/11/25 01:14:36;;;;;;;37.15;22.08;;;;;;;;;;5081382;28;20043;-73
2023/11/25 01:17:40;;;;;;;37.15;23.60;;;;;;;;;;5095317;28;20039;-73
2023/11/25 01:20:44;;;;;;;38.83;22.85;;;;;;;;;;5095516;28;20069;-73
2023/11/25 01:23:48;;;;;;;35.17;21.23;;;;;;;;;;5082507;28;20055;-73
2023/11/25 01:26:53;;;;;;;32.83;21.42;;;;;;;;;;5095066;28;20399;-73
2023/11/25 01:29:57;;;;;;;38.70;22.60;;;;;;;;;;5095000;28;20051;-73
2023/11/25 01:33:06;;;;;;;37.47;22.83;;;;;;;;;;5082616;28;20051;-73
2023/11/25 01:36:11;;;;;;;33.70;20.75;;;;;;;;;;5082744;28;20400;-74
2023/11/25 01:39:15;;;;;;;37.60;21.10;;;;;;;;;;5082455;28;20039;-73
2023/11/25 01:42:20;;;;;;;34.58;21.10;;;;;;;;;;5094587;28;20043;-73
2023/11/25 01:45:27;;;;;;;34.35;22.13;;;;;;;;;;5094832;28;20058;-73
2023/11/25 01:48:31;;;;;;;30.77;20.58;;;;;;;;;;5082186;28;20042;-74
2023/11/25 01:51:36;;;;;;;34.13;21.05;;;;;;;;;;5094656;28;20514;-73
2023/11/25 01:54:41;;;;;;;32.95;20.90;;;;;;;;;;5095459;28;20031;-74
2023/11/25 01:57:46;;;;;;;34.22;19.65;;;;;;;;;;5094668;28;20043;-74
2023/11/25 02:00:50;;;;;;;32.83;20.10;;;;;;;;;;5094766;28;20059;-74
2023/11/25 02:03:56;;;;;;;30.40;19.27;;;;;;;;;;5070764;28;20071;-74
2023/11/25 02:07:01;;;;;;;29.88;17.38;;;14.90;99.90;;;;;;5094317;28;20039;-74
2023/11/25 02:10:06;;;;;;;29.80;18.27;;;;;;;;;;5093178;28;20059;-74
2023/11/25 02:13:11;;;;;;;29.70;19.13;;;;;;;;;;5092896;28;20391;-73
2023/11/25 02:16:16;;;;;;;32.75;18.70;;;;;;;;;;5080727;28;20047;-74
2023/11/25 02:19:21;;;;;;;29.98;18.15;;;;;;;;;;5080412;28;20054;-73
2023/11/25 02:22:26;;;;;;;25.00;17.90;;;;;;;;;;5080034;28;20059;-72
2023/11/25 02:25:30;;;;;;;27.70;17.95;;;;;;;;;;5092255;28;20035;-74
2023/11/25 02:28:35;;;;;;;29.70;18.02;;;;;;;;;;5080381;28;20039;-74
2023/11/25 02:31:40;;;;;;;26.23;15.57;;;;;;;;;;5092532;28;20530;-74
2023/11/25 02:34:45;;;;;;;26.88;13.63;;;;;;;;;;5080569;28;20507;-74
2023/11/25 02:37:49;;;;;;;20.63;12.38;;;;;;;;;;5092816;28;20157;-73
2023/11/25 02:40:54;;;;;;;22.27;12.65;;;;;;;;;;5092581;28;20046;-73
2023/11/25 02:43:58;;;;;;;25.90;13.90;;;;;;;;;;5079983;28;20067;-73
2023/11/25 02:47:04;;;;;;;20.55;12.75;;;;;;;;;;5092819;28;20039;-73
2023/11/25 02:50:10;;;;;;;21.83;11.32;;;;;;;;;;5092585;28;20047;-73
2023/11/25 02:53:15;;;;;;;25.08;11.60;;;;;;;;;;5079874;28;20050;-73
2023/11/25 02:56:20;;;;;;;22.92;10.23;;;;;;;;;;5080030;28;20047;-73
2023/11/25 02:59:24;;;;;;;25.13;11.45;;;;;;;;;;5092303;28;20098;-73
2023/11/25 03:02:29;;;;;;;22.35;11.30;;;;;;;;;;5092183;28;20036;-72
2023/11/25 03:05:33;;;;;;;16.55;9.93;;;;;;;;;;5092323;28;20047;-73
2023/11/25 03:08:38;;;;;;;23.20;10.77;;;;;;;;;;5048080;28;1262824;-73
2023/11/25 03:11:43;;;;;;;19.20;10.00;;;;;;;;;;5093323;28;20055;-73
2023/11/25 03:14:47;;;;;;;16.33;9.02;;;;;;;;;;5093188;28;20528;-73
2023/11/25 03:17:51;;;;;;;16.50;8.73;;;;;;;;;;5080883;28;20040;-73
2023/11/25 03:20:55;;;;;;;20.95;10.13;;;;;;;;;;5080795;28;20079;-73
2023/11/25 03:24:00;;;;;;;24.80;9.02;;;;;;;;;;5092806;28;20055;-72
2023/11/25 03:27:04;;;;;;;21.33;8.60;;;;;;;;;;5092833;28;20475;-72
2023/11/25 03:30:11;;;;;;;22.17;8.13;;;;;;;;;;5092634;28;20391;-72
2023/11/25 03:33:15;;;;;;;19.35;8.30;;;;;;;;;;5092535;28;20385;-73
2023/11/25 03:36:20;;;;;;;19.17;7.20;;;;;;;;;;5092001;28;20063;-72
2023/11/25 03:39:26;;;;;;;23.92;8.05;;;;;;;;;;5092903;28;20032;-72
2023/11/25 03:42:30;;;;;;;15.27;7.45;;;;;;;;;;5092478;28;20036;-72
2023/11/25 03:45:35;;;;;;;18.75;7.75;;;;;;;;;;5092393;28;20047;-73
2023/11/25 03:48:39;;;;;;;20.00;8.27;;;;;;;;;;5092574;28;20118;-73
2023/11/25 03:51:44;;;;;;;17.10;7.30;;;;;;;;;;5092234;28;20051;-73
2023/11/25 03:54:48;;;;;;;16.90;9.82;;;;;;;;;;5079871;28;20035;-72
2023/11/25 03:57:52;;;;;;;15.38;9.48;;;;;;;;;;5092118;28;20031;-73
2023/11/25 04:00:57;;;;;;;21.98;10.60;;;;;;;;;;5092009;28;20039;-73
2023/11/25 04:04:03;;;;;;;23.95;9.88;;;;;;;;;;5092194;28;20542;-73
2023/11/25 04:07:07;;;;;;;19.05;10.30;;;;;;;;;;5079404;28;20035;-73
2023/11/25 04:10:12;;;;;;;25.23;9.50;;;;;;;;;;5092048;28;20403;-73
2023/11/25 04:13:17;;;;;;;23.70;10.32;;;;;;;;;;5091995;28;20044;-73
2023/11/25 04:16:21;;;;;;;19.77;9.02;;;;;;;;;;5079511;28;20047;-73
2023/11/25 04:19:26;;;;;;;20.50;8.80;;;;;;;;;;5079445;28;20032;-73
2023/11/25 04:22:31;;;;;;;17.73;8.30;;;;;;;;;;5091699;28;20040;-73
2023/11/25 04:25:35;;;;;;;17.90;7.60;;;;;;;;;;5079249;28;20044;-74
2023/11/25 04:28:39;;;;;;;27.27;7.65;;;;;;;;;;5079247;28;20392;-71
2023/11/25 04:31:44;;;;;;;18.10;8.18;;;;;;;;;;5091374;28;20040;-72
2023/11/25 04:34:48;;;;;;;20.25;7.90;;;;;;;;;;5091626;28;20040;-73
2023/11/25 04:37:52;;;;;;;18.00;7.40;;;;;;;;;;5091639;28;20403;-74
2023/11/25 04:40:57;;;;;;;14.63;6.55;;;;;;;;;;5091631;28;20055;-72
2023/11/25 04:44:02;;;;;;;17.98;7.53;;;;;;;;;;5091414;28;20051;-74
2023/11/25 04:47:06;;;;;;;17.77;7.32;;;;;;;;;;5091344;28;20073;-73
2023/11/25 04:50:12;;;;;;;12.10;6.15;;;;;;;;;;5091696;28;20035;-72
2023/11/25 04:53:16;;;;;;;18.25;5.82;;;;;;;;;;5091489;28;20392;-73
2023/11/25 04:56:20;;;;;;;12.00;4.40;;;;;;;;;;5091559;28;20047;-72
2023/11/25 04:59:24;;;;;;;14.90;4.47;;;;;;;;;;5091140;28;20055;-72
2023/11/25 05:02:28;;;;;;;12.13;4.13;;;;;;;;;;5091109;28;20032;-72
2023/11/25 05:05:33;;;;;;;14.07;3.47;;;;;;;;;;5091387;28;20074;-72
2023/11/25 05:08:37;;;;;;;13.57;4.38;;;;;;;;;;5090956;28;20047;-72
2023/11/25 05:11:41;;;;;;;8.85;3.20;;;;;;;;;;5091167;28;20522;-72
2023/11/25 05:14:46;;;;;;;9.90;2.60;;;;;;;;;;5091223;28;20036;-72
2023/11/25 05:17:50;;;;;;;11.68;2.75;;;;;;;;;;5091028;28;20396;-72
2023/11/25 05:20:54;;;;;;;13.63;3.00;;;;;;;;;;5091030;28;20496;-72
2023/11/25 05:23:59;;;;;;;8.35;3.10;;;;;;;;;;5090838;28;20047;-72
2023/11/25 05:27:03;;;;;;;7.45;2.80;;;;;;;;;;5091019;28;20036;-73
2023/11/25 05:30:11;;;;;;;7.90;1.77;;;;;;;;;;5091003;28;20035;-73
2023/11/25 05:33:15;;;;;;;6.53;1.42;;;;;;;;;;5090831;28;20368;-73
2023/11/25 05:36:23;;;;;;;6.30;1.20;;;;;;;;;;5091041;28;20044;-73
2023/11/25 05:39:28;;;;;;;3.53;1.40;;;;;;;;;;5091192;28;20032;-72
2023/11/25 05:42:32;;;;;;;5.70;1.30;;;;;;;;;;5090901;28;20036;-73
2023/11/25 05:45:40;;;;;;;4.47;1.60;;;;;;;;;;5090904;28;20036;-72
2023/11/25 05:48:44;;;;;;;12.30;3.45;;;;;;;;;;5090788;28;20032;-72
2023/11/25 05:51:50;;;;;;;10.82;3.60;;;;;;;;;;5090795;28;20051;-72
2023/11/25 05:54:55;;;;;;;13.82;3.60;;;;;;;;;;5090788;28;20115;-72
2023/11/25 05:57:59;;;;;;;8.07;3.60;;;;;;;;;;5090798;28;20040;-73
2023/11/25 06:01:04;;;;;;;13.07;3.60;;;;;;;;;;5094094;28;20047;-72
2023/11/25 06:04:09;;;;;;;8.77;3.72;;;;;;;;;;5094389;28;20054;-73
2023/11/25 06:07:14;;;;;;;13.20;4.05;;;;;;;;;;5094681;28;20048;-72
2023/11/25 06:10:18;;;;;;;8.88;3.70;;;;;;;;;;5094543;28;20055;-73
2023/11/25 06:13:22;;;;;;;10.32;3.97;;;;;;;;;;5094147;28;20036;-74
2023/11/25 06:16:29;;;;;;;8.15;2.70;;;;;;;;;;5094414;28;20040;-74
2023/11/25 06:19:33;;;;;;;10.15;2.90;;;;;;;;;;5094297;28;20032;-73
2023/11/25 06:22:38;;;;;;;9.50;2.70;;;;;;;;;;5093824;28;20040;-73
2023/11/25 06:25:45;;;;;;;10.27;3.00;;;;;;;;;;5094251;28;20040;-74
2023/11/25 06:28:49;;;;;;;10.85;2.90;;;;;;;;;;5093966;28;20036;-74
2023/11/25 06:31:54;;;;;;;13.77;3.10;;;;;;;;;;5093662;28;20041;-72
2023/11/25 06:34:58;;;;;;;12.80;3.20;;;;;;;;;;5093657;28;20051;-73
2023/11/25 06:38:04;;;;;;;6.88;2.67;;;;;;;;;;5081289;28;20040;-73
2023/11/25 06:41:08;;;;;;;4.90;1.80;;;;;;;;;;5094072;28;20044;-73
2023/11/25 06:44:12;;;;;;;2.65;0.80;;;;;;;;;;5093609;28;20048;-72
2023/11/25 06:47:16;;;;;;;2.30;0.90;;;;;;;;;;5093805;28;20032;-72
2023/11/25 06:50:22;;;;;;;2.85;0.90;;;;;;;;;;5094039;28;20548;-68
2023/11/25 06:53:26;;;;;;;2.60;0.82;;;;;;;;;;5081010;28;20043;-68
2023/11/25 06:56:31;;;;;;;1.90;0.88;;;;;;;;;;5093507;28;20036;-67
2023/11/25 06:59:35;;;;;;;1.10;0.70;;;;;;;;;;5093433;28;20040;-68
2023/11/25 07:02:40;;;;;;;1.15;0.85;;;;;;;;;;5093128;28;20048;-68
2023/11/25 07:05:47;;;;;;;1.02;0.60;;;;;;;;;;5093298;28;20032;-68
2023/11/25 07:08:53;;;;;;;2.28;0.63;;;;;;;;;;5080023;28;20048;-68
2023/11/25 07:11:57;;;;;;;0.90;0.57;;;;;;;;;;5092063;28;20040;-68
2023/11/25 07:15:01;;;;;;;2.60;0.77;;;;;;;;;;5093371;28;20040;-68
2023/11/25 07:18:06;;;;;;;1.23;0.80;;;;;;;;;;5092795;28;20040;-68
2023/11/25 07:21:14;;;;;;;1.92;0.98;;;;;;;;;;5092580;28;20044;-68
2023/11/25 07:24:18;;;;;;;0.60;0.50;;;;;;;;;;5092705;28;20052;-67
2023/11/25 07:27:23;;;;;;;2.03;0.50;;;;;;;;;;5093155;28;20040;-68
2023/11/25 07:30:27;;;;;;;2.90;0.90;;;;;;;;;;5093118;28;20040;-68
2023/11/25 07:33:32;;;;;;;1.05;0.50;;;;;;;;;;5092979;28;20560;-68
2023/11/25 07:36:37;;;;;;;1.35;0.60;;;;;;;;;;5079990;28;20040;-68
2023/11/25 07:39:41;;;;;;;1.95;0.50;;;;;;;;;;5092487;28;20036;-69
2023/11/25 07:42:48;;;;;;;1.27;0.52;;;;;;;;;;5079400;28;20032;-68
2023/11/25 07:45:52;;;;;;;1.40;0.52;;;;;;;;;;5079709;28;20036;-68
2023/11/25 07:48:59;;;;;;;0.32;0.32;;;;;;;;;;5092508;28;20036;-68
2023/11/25 07:52:04;;;;;;;1.67;0.70;;;;;;;;;;5092485;28;20040;-68
2023/11/25 07:55:09;;;;;;;1.55;0.60;;;;;;;;;;5092141;28;20377;-68
2023/11/25 07:58:14;;;;;;;0.75;0.47;;;;;;;;;;5092274;28;20032;-69
2023/11/25 08:01:18;;;;;;;1.75;0.70;;;;;;;;;;5092196;28;20040;-68
2023/11/25 08:04:22;;;;;;;3.42;0.70;;;;;;;;;;5092071;28;20048;-68
2023/11/25 08:07:27;;;;;;;1.00;0.45;;;;;;;;;;5092106;28;20368;-68
2023/11/25 08:10:34;;;;;;;0.77;0.50;;;;;;;;;;5091752;28;20044;-68
2023/11/25 08:13:40;;;;;;;3.85;0.98;;;12.20;97.90;;;;;;5091801;28;20035;-67
2023/11/25 08:16:47;;;;;;;0.98;0.50;;;;;;;;;;5056464;28;20122;-67
2023/11/25 08:19:51;;;;;;;4.43;0.57;;;;;;;;;;5091748;28;20032;-68
2023/11/25 08:22:56;;;;;;;1.67;1.10;;;;;;;;;;5091299;28;20036;-69
2023/11/25 08:26:00;;;;;;;2.75;0.57;;;;;;;;;;5091547;28;20048;-68
2023/11/25 08:29:04;;;;;;;1.75;0.60;;;;;;;;;;5091374;28;20040;-69
2023/11/25 08:32:09;;;;;;;0.70;0.50;;;;;;;;;;5091246;28;20547;-69
2023/11/25 08:35:13;;;;;;;0.70;0.40;;;;;;;;;;5091417;28;20043;-68
2023/11/25 08:38:18;;;;;;;0.68;0.40;;;;;;;;;;5078932;28;20036;-69
2023/11/25 08:41:22;;;;;;;6.43;0.50;;;;;;;;;;5091321;28;20036;-68
2023/11/25 08:44:27;;;;;;;1.55;0.50;;;;;;;;;;5091221;28;20051;-68
2023/11/25 08:47:34;;;;;;;1.17;0.57;;;;;;;;;;5091234;28;20032;-68
2023/11/25 08:50:39;;;;;;;0.47;0.35;;;;;;;;;;5091267;28;20036;-68
2023/11/25 08:53:44;;;;;;;1.33;0.40;;;;;;;;;;5091478;28;20344;-68
2023/11/25 08:56:51;;;;;;;0.68;0.40;;;;;;;;;;5091136;28;20036;-67
2023/11/25 08:59:55;;;;;;;0.73;0.50;;;;;;;;;;5091480;28;20032;-65
2023/11/25 09:03:07;;;;;;;5.82;0.88;;;;;;;;;;5091200;28;20036;-65
2023/11/25 09:06:12;;;;;;;1.73;0.60;;;;;;;;;;5079327;28;20036;-68
2023/11/25 09:09:18;;;;;;;0.77;0.50;;;12.10;92.80;;;;;;5091061;28;20040;-66
2023/11/25 09:12:22;;;;;;;3.55;0.40;;;;;;;;;;5090976;28;20047;-68
2023/11/25 09:15:27;;;;;;;0.35;0.30;;;;;;;;;;5090955;28;20036;-67
2023/11/25 09:18:31;;;;;;;1.85;0.60;;;;;;;;;;5078681;28;20028;-66
2023/11/25 09:21:36;;;;;;;0.60;0.47;;;;;;;;;;5090974;28;20036;-67
2023/11/25 09:24:41;;;;;;;0.93;0.50;;;;;;;;;;5091209;28;20048;-67
2023/11/25 09:27:46;;;;;;;1.48;0.70;;;;;;;;;;5091173;28;20032;-76
2023/11/25 09:30:52;;;;;;;0.63;0.40;;;;;;;;;;5093079;28;20369;-73
2023/11/25 09:33:56;;;;;;;0.30;0.30;;;;;;;;;;5091795;28;20040;-67
2023/11/25 09:37:02;;;;;;;0.82;0.50;;;;;;;;;;5095063;28;20048;-67
2023/11/25 09:40:14;;;;;;;1.05;0.47;;;12.10;91.50;;;;;;5094750;28;20586;-68
2023/11/25 09:43:21;;;;;;;0.30;0.30;;;12.50;91.30;;;;;;5094819;28;20210;-68
2023/11/25 09:46:25;;;;;;;0.95;0.40;;;;;;;;;;5094736;28;20043;-66
2023/11/25 09:49:30;;;;;;;0.88;0.50;;;;;;;;;;5095098;28;20215;-66
2023/11/25 09:52:39;;;;;;;1.27;0.50;;;11.20;90.80;;;;;;5082160;28;20484;-67
2023/11/25 09:55:51;;;;;;;2.25;0.50;;;11.60;91.00;;;;;;5095967;28;20047;-66
2023/11/25 09:58:56;;;;;;;1.52;0.80;;;;;;;;;;5095003;28;20047;-68
2023/11/25 10:02:06;;;;;;;2.20;0.50;;;;;;;;;;5094831;28;20040;-68
2023/11/25 10:05:11;;;;;;;5.88;0.70;;;;;;;;;;5095287;28;20044;-65
2023/11/25 10:08:15;;;;;;;2.17;0.70;;;;;;;;;;5094372;28;20044;-68
2023/11/25 10:11:22;;;;;;;1.00;0.50;;;;;;;;;;5094417;28;20035;-67
2023/11/25 10:14:29;;;;;;;4.28;0.85;;;;;;;;;;5094471;28;20036;-68
2023/11/25 10:17:33;;;;;;;1.55;0.68;;;;;;;;;;5094116;28;20044;-68
2023/11/25 10:20:42;;;;;;;1.02;0.55;;;11.70;92.40;;;;;;5094217;28;20373;-68
2023/11/25 10:23:47;;;;;;;2.58;0.60;;;;;;;;;;5093985;28;20435;-67
2023/11/25 10:26:54;;;;;;;1.92;1.00;;;11.20;92.30;;;;;;5093777;28;20385;-67
2023/11/25 10:29:58;;;;;;;2.70;0.80;;;;;;;;;;5094133;28;20043;-65
2023/11/25 10:33:04;;;;;;;0.88;0.50;;;11.30;90.90;;;;;;5094428;28;20040;-68
2023/11/25 10:36:08;;;;;;;1.00;0.50;;;;;;;;;;5093925;28;20526;-67
2023/11/25 10:39:17;;;;;;;1.85;0.70;;;;;;;;;;5093859;28;20044;-70
2023/11/25 10:42:22;;;;;;;2.80;0.70;;;;;;;;;;5093765;28;20460;-68
2023/11/25 10:45:27;;;;;;;3.00;0.80;;;;;;;;;;5093749;28;20052;-67
2023/11/25 10:48:32;;;;;;;2.65;0.70;;;;;;;;;;5093539;28;20032;-66
2023/11/25 10:51:38;;;;;;;4.20;0.70;;;11.60;88.50;;;;;;5093685;28;20040;-66
2023/11/25 10:54:45;;;;;;;8.13;1.13;;;11.50;89.30;;;;;;5069549;28;20039;-67
2023/11/25 10:57:49;;;;;;;4.32;1.00;;;;;;;;;;5093359;28;20492;-68
2023/11/25 11:00:54;;;;;;;4.43;1.30;;;11.80;88.70;;;;;;5093175;28;20365;-68
2023/11/25 11:04:13;;;;;;;3.72;1.38;;;11.80;90.20;;;;;;5093098;28;20415;-66
2023/11/25 11:07:19;;;;;;;2.25;1.00;;;11.60;87.70;;;;;;5093301;28;20035;-66
2023/11/25 11:10:36;;;;;;;3.72;2.50;;;11.70;88.90;;;;;;5092827;28;20051;-66
2023/11/25 11:13:46;;;;;;;4.75;2.08;;;11.50;88.40;;;;;;5093003;28;20043;-68
2023/11/25 11:17:27;;;;;;;3.65;1.42;;;11.90;88.00;;;;;;5092197;28;20043;-68
2023/11/25 11:20:32;;;;;;;6.50;3.93;;;11.20;88.00;;;;;;5080406;28;20039;-68
2023/11/25 11:23:37;;;;;;;3.92;2.33;;;;;;;;;;5080335;28;20047;-68
2023/11/25 11:27:10;;;;;;;4.65;2.13;;;11.10;86.70;;;;;;5080293;28;20040;-67
2023/11/25 11:30:42;;;;;;;1.52;0.80;;;11.40;86.50;;;;;;5092744;28;20047;-68
2023/11/25 11:33:46;;;;;;;5.25;2.72;;;;;;;;;;5092778;28;20403;-69
2023/11/25 11:36:52;;;;;;;2.63;1.35;;;12.10;85.70;;;;;;5080161;28;20032;-66
2023/11/25 11:40:00;;;;;;;3.33;1.50;;;11.40;85.00;;;;;;5092467;28;20506;-67
2023/11/25 11:43:08;;;;;;;4.40;2.20;;;10.90;85.60;;;;;;5092137;28;20031;-67
2023/11/25 11:46:14;;;;;;;4.68;2.80;;;;;;;;;;5092217;28;20051;-67
2023/11/25 11:49:20;;;;;;;3.13;1.73;;;;;;;;;;5092517;28;20040;-66
2023/11/25 11:52:27;;;;;;;4.35;1.52;;;;;;;;;;5092144;28;20040;-67
2023/11/25 11:55:47;;;;;;;2.92;2.10;;;12.10;84.50;;;;;;5078060;28;20035;-68
2023/11/25 11:58:58;;;;;;;1.75;1.27;;;12.20;82.30;;;;;;5078260;28;20047;-68
2023/11/25 12:02:03;;;;;;;6.20;1.40;;;;;;;;;;5090914;28;20039;-68
2023/11/25 12:05:07;;;;;;;2.30;1.13;;;;;;;;;;5091283;28;20405;-68
2023/11/25 12:08:12;;;;;;;1.38;0.90;;;;;;;;;;5089173;28;20039;-68
2023/11/25 12:11:16;;;;;;;1.08;0.88;;;12.20;79.00;;;;;;5089832;28;20483;-67
2023/11/25 12:14:21;;;;;;;3.65;1.10;;;;;;;;;;5067296;28;20043;-66
2023/11/25 12:17:26;;;;;;;5.97;1.20;;;;;;;;;;5091287;28;20104;-66
2023/11/25 12:20:31;;;;;;;1.88;1.08;;;;;;;;;;5091684;28;20028;-66
2023/11/25 12:23:35;;;;;;;3.28;1.40;;;;;;;;;;5091319;28;20032;-67
2023/11/25 12:26:49;;;;;;;1.83;1.00;;;12.00;77.50;;;;;;5091306;28;20373;-66
2023/11/25 12:29:54;;;;;;;3.22;1.35;;;;;;;;;;5091540;28;20646;-66
2023/11/25 12:32:58;;;;;;;3.85;2.20;;;;;;;;;;5091741;28;20032;-67
2023/11/25 12:36:03;;;;;;;3.80;0.70;;;;;;;;;;5078946;28;20479;-66
2023/11/25 12:39:11;;;;;;;1.70;1.20;;;;;;;;;;5091443;28;20044;-67
2023/11/25 12:42:22;;;;;;;1.92;1.42;;;12.70;75.00;;;;;;5091530;28;20040;-66
2023/11/25 12:45:32;;;;;;;2.30;1.35;;;12.40;74.00;;;;;;5091278;28;20055;-67
2023/11/25 12:48:37;;;;;;;3.03;1.25;;;;;;;;;;5091085;28;20042;-66
2023/11/25 12:51:44;;;;;;;5.85;1.40;;;12.50;71.90;;;;;;5091273;28;20036;-67
2023/11/25 12:54:49;;;;;;;3.45;1.98;;;;;;;;;;5091437;28;20050;-67
2023/11/25 12:57:53;;;;;;;5.13;2.70;;;;;;;;;;5091042;28;20036;-67
2023/11/25 13:00:58;;;;;;;6.50;1.42;;;;;;;;;;5091432;28;20036;-66
2023/11/25 13:04:03;;;;;;;4.20;1.90;;;12.60;73.70;;;;;;5090929;28;20341;-66
2023/11/25 13:07:09;;;;;;;5.38;2.10;;;;;;;;;;5090883;28;20043;-66
2023/11/25 13:10:13;;;;;;;5.05;3.70;;;;;;;;;;5094931;28;20040;-67
2023/11/25 13:13:19;;;;;;;5.05;3.08;;;;;;;;;;5095670;28;20044;-67
2023/11/25 13:16:23;;;;;;;9.10;5.35;;;;;;;;;;5095436;28;20032;-68
2023/11/25 13:19:28;;;;;;;11.52;7.30;;;;;;;;;;5082871;28;20040;-67
2023/11/25 13:22:32;;;;;;;6.13;3.97;;;;;;;;;;5071356;28;20036;-68
2023/11/25 13:25:37;;;;;;;5.57;3.45;;;;;;;;;;5095050;28;20040;-67
2023/11/25 13:28:44;;;;;;;4.43;3.10;;;;;;;;;;5095458;28;20036;-69
2023/11/25 13:31:48;;;;;;;4.80;2.60;;;;;;;;;;5082391;28;20028;-68
2023/11/25 13:34:52;;;;;;;5.57;2.10;;;;;;;;;;5095110;28;20040;-68
2023/11/25 13:37:58;;;;;;;8.52;2.13;;;12.30;73.20;;;;;;5094976;28;20036;-68
2023/11/25 13:41:03;;;;;;;5.68;1.80;;;;;;;;;;5094946;28;20051;-65
2023/11/25 13:44:07;;;;;;;7.47;1.65;;;;;;;;;;5094469;28;20048;-66
2023/11/25 13:47:12;;;;;;;4.55;1.92;;;;;;;;;;5094709;28;20036;-68
2023/11/25 13:50:16;;;;;;;3.28;1.45;;;;;;;;;;5082165;28;20044;-67
2023/11/25 13:53:20;;;;;;;6.18;2.25;;;;;;;;;;5095030;28;20040;-70
2023/11/25 13:56:25;;;;;;;16.30;9.35;;;12.30;76.30;;;;;;5094921;28;20044;-70
2023/11/25 13:59:32;;;;;;;5.30;3.45;;;;;;;;;;5094557;28;20051;-70
2023/11/25 14:02:36;;;;;;;6.30;1.80;;;;;;;;;;5082042;28;20139;-70
2023/11/25 14:05:45;;;;;;;3.30;1.52;;;;;;;;;;5081874;28;20048;-68
2023/11/25 14:08:50;;;;;;;4.82;1.85;;;;;;;;;;5094251;28;20040;-69
2023/11/25 14:11:54;;;;;;;4.68;2.10;;;;;;;;;;5094126;28;20035;-68
2023/11/25 14:14:59;;;;;;;7.20;2.20;;;;;;;;;;5094578;28;20044;-69
2023/11/25 14:18:07;;;;;;;5.35;2.00;;;;;;;;;;5094513;28;20043;-69
2023/11/25 14:21:13;;;;;;;4.80;2.17;;;;;;;;;;5093738;28;20036;-71
2023/11/25 14:24:17;;;;;;;6.15;3.80;;;;;;;;;;5094199;28;20044;-68
2023/11/25 14:27:22;;;;;;;7.63;3.17;;;;;;;;;;5081703;28;20032;-68
2023/11/25 14:30:28;;;;;;;12.40;4.60;;;;;;;;;;5094217;28;20048;-69
2023/11/25 14:33:33;;;;;;;6.63;3.88;;;;;;;;;;5094124;28;20036;-69
2023/11/25 14:36:37;;;;;;;7.93;3.30;;;;;;;;;;5094145;28;20044;-67
2023/11/25 14:39:42;;;;;;;14.23;6.15;;;;;;;;;;5093619;28;20036;-67
2023/11/25 14:42:46;;;;;;;8.20;5.18;;;;;;;;;;5094814;28;20074;-75
2023/11/25 14:45:50;;;;;;;11.10;4.15;;;;;;;;;;5094611;28;20044;-73
2023/11/25 14:48:55;;;;;;;11.73;6.43;;;;;;;;;;5094225;28;20036;-70
2023/11/25 14:51:59;;;;;;;11.18;4.80;;;;;;;;;;5092642;28;20048;-71
2023/11/25 14:55:06;;;;;;;9.88;5.53;;;11.50;76.30;;;;;;5092904;28;20047;-72
2023/11/25 14:58:10;;;;;;;14.38;6.70;;;;;;;;;;5093534;28;20043;-71
2023/11/25 15:01:16;;;;;;;14.88;4.35;;;;;;;;;;5092979;28;20047;-72
2023/11/25 15:04:20;;;;;;;8.88;4.40;;;;;;;;;;5093637;28;20059;-72
2023/11/25 15:07:24;;;;;;;11.93;4.05;;;;;;;;;;5093722;28;20036;-70
2023/11/25 15:10:29;;;;;;;9.88;5.82;;;;;;;;;;5093571;28;20044;-71
2023/11/25 15:13:33;;;;;;;23.20;11.20;;;;;;;;;;5094142;28;20044;-71
2023/11/25 15:16:38;;;;;;;17.48;7.70;;;;;;;;;;5093668;28;20043;-71
2023/11/25 15:19:44;;;;;;;14.43;9.00;;;;;;;;;;5093270;28;20051;-72
2023/11/25 15:22:50;;;;;;;5.95;4.00;;;;;;;;;;5093515;28;20377;-72
2023/11/25 15:25:55;;;;;;;7.20;3.42;;;11.90;77.70;;;;;;5093053;28;20048;-72
2023/11/25 15:28:59;;;;;;;7.35;3.75;;;;;;;;;;5092983;28;20031;-72
2023/11/25 15:32:04;;;;;;;7.95;3.83;;;;;;;;;;5079211;28;20369;-72
2023/11/25 15:35:09;;;;;;;11.60;5.22;;;;;;;;;;5080444;28;20040;-72
2023/11/25 15:38:13;;;;;;;13.10;6.80;;;;;;;;;;5092633;28;20040;-72
2023/11/25 15:41:17;;;;;;;16.90;7.75;;;;;;;;;;5092828;28;20032;-72
2023/11/25 15:44:22;;;;;;;15.77;7.97;;;;;;;;;;5092448;28;20040;-71
2023/11/25 15:47:26;;;;;;;17.67;8.60;;;;;;;;;;5092934;28;20474;-73
2023/11/25 15:50:30;;;;;;;11.18;6.38;;;;;;;;;;5079922;28;20036;-72
2023/11/25 15:53:35;;;;;;;10.77;5.82;;;;;;;;;;5093077;28;20641;-71
2023/11/25 15:56:40;;;;;;;17.80;10.45;;;;;;;;;;5092717;28;20047;-72
2023/11/25 15:59:47;;;;;;;15.02;8.85;;;;;;;;;;5092459;28;20043;-71
2023/11/25 16:02:52;;;;;;;20.05;8.48;;;;;;;;;;5092643;28;20039;-72
2023/11/25 16:05:58;;;;;;;23.02;10.75;;;11.60;80.00;;;;;;5092151;28;20044;-72
2023/11/25 16:09:04;;;;;;;24.73;9.00;;;;;;;;;;5091711;28;20046;-72
2023/11/25 16:12:10;;;;;;;24.65;14.63;;;;;;;;;;5091991;28;20036;-73
2023/11/25 16:15:16;;;;;;;20.15;11.32;;;;;;;;;;5079589;28;20046;-72
2023/11/25 16:18:29;;;;;;;14.80;8.48;;;;;;;;;;5091768;28;20051;-72
2023/11/25 16:21:36;;;;;;;9.13;5.95;;;;;;;;;;5091885;28;20040;-72
2023/11/25 16:24:41;;;;;;;15.55;7.85;;;;;;;;;;5091438;28;20036;-72
2023/11/25 16:27:45;;;;;;;13.38;6.47;;;;;;;;;;5091889;28;20475;-72
2023/11/25 16:30:50;;;;;;;30.38;16.65;;;;;;;;;;5091780;28;20039;-72
2023/11/25 16:33:54;;;;;;;24.50;14.20;;;;;;;;;;5091680;28;20039;-71
2023/11/25 16:36:58;;;;;;;55.88;29.98;;;;;;;;;;5091506;28;20043;-71
2023/11/25 16:40:03;;;;;;;31.58;18.17;;;;;;;;;;5091582;28;20047;-72
2023/11/25 16:43:07;;;;;;;21.20;13.65;;;;;;;;;;5090943;28;20063;-72
2023/11/25 16:46:12;;;;;;;15.40;8.05;;;;;;;;;;5091527;28;20043;-71
2023/11/25 16:49:16;;;;;;;14.90;8.38;;;11.80;73.60;;;;;;5091288;28;20035;-71
2023/11/25 16:52:23;;;;;;;8.63;4.28;;;;;;;;;;5091121;28;20062;-71
2023/11/25 16:55:28;;;;;;;13.15;6.50;;;;;;;;;;5091342;28;20040;-72
2023/11/25 16:58:32;;;;;;;20.27;11.70;;;;;;;;;;5078682;28;20036;-72
2023/11/25 17:01:40;;;;;;;19.83;11.93;;;;;;;;;;5091128;28;20510;-72
2023/11/25 17:04:44;;;;;;;19.80;11.85;;;;;;;;;;5091123;28;20051;-72
2023/11/25 17:07:48;;;;;;;17.20;9.93;;;;;;;;;;5090901;28;20044;-72
2023/11/25 17:10:52;;;;;;;14.52;7.38;;;;;;;;;;5091155;28;20048;-72
2023/11/25 17:13:57;;;;;;;11.30;4.35;;;;;;;;;;5091063;28;20036;-72
2023/11/25 17:17:07;;;;;;;6.32;3.20;;;;;;;;;;5091266;28;20028;-72
2023/11/25 17:20:11;;;;;;;9.65;4.05;;;;;;;;;;5091087;28;20035;-72
2023/11/25 17:23:16;;;;;;;9.80;4.20;;;;;;;;;;5078509;28;20036;-71
2023/11/25 17:26:21;;;;;;;8.40;4.50;;;;;;;;;;5091127;28;20047;-71
2023/11/25 17:29:25;;;;;;;7.05;3.72;;;;;;;;;;5090569;28;20032;-71
2023/11/25 17:32:29;;;;;;;5.10;3.13;;;;;;;;;;5091475;28;20039;-71
2023/11/25 17:35:33;;;;;;;4.90;2.80;;;;;;;;;;5090961;28;20059;-71
2023/11/25 17:38:38;;;;;;;5.82;3.40;;;;;;;;;;5091181;28;20495;-71
2023/11/25 17:41:43;;;;;;;8.23;3.17;;;;;;;;;;5078682;28;20195;-71
2023/11/25 17:44:48;;;;;;;5.55;3.05;;;;;;;;;;5091357;28;20401;-71
2023/11/25 17:47:53;;;;;;;5.40;3.65;;;;;;;;;;5091214;28;20476;-71
2023/11/25 17:50:57;;;;;;;6.55;4.53;;;;;;;;;;5091254;28;20044;-72
2023/11/25 17:54:02;;;;;;;8.60;5.25;;;;;;;;;;5091228;28;20487;-71
2023/11/25 17:57:08;;;;;;;5.60;3.28;;;;;;;;;;5094684;28;20036;-71
2023/11/25 18:00:12;;;;;;;34.53;14.55;;;;;;;;;;5095221;28;20044;-71
2023/11/25 18:03:17;;;;;;;29.27;15.63;;;;;;;;;;5095250;28;20043;-72